sensor_id;sensor_type;location;lat;lon;timestamp;pressure;altitude;pressure_sealevel;temperature;humidity
2711;BME280;20721;47.402;8.550;2024-02-26T00:01:07;94190;;;10.50;44.05
2711;BME280;20721;47.402;8.550;2024-02-26T00:03:07;94190;;;10.44;43.95
2711;BME280;20721;47.402;8.550;2024-02-26T00:05:07;94194;;;10.36;44.21
2711;BME280;20721;47.402;8.550;2024-02-26T00:07:07;94193;;;10.32;44.23
2711;BME280;20721;47.402;8.550;2024-02-26T00:09:07;94192;;;10.35;44.17
2711;BME280;20721;47.402;8.550;2024-02-26T00:11:07;94187;;;10.46;43.98
2711;BME280;20721;47.402;8.550;2024-02-26T00:13:07;94187;;;10.52;44.02
2711;BME280;20721;47.402;8.550;2024-02-26T00:15:07;94192;;;10.58;44.14
2711;BME280;20721;47.402;8.550;2024-02-26T00:18:07;94190;;;10.62;44.50
2711;BME280;20721;47.402;8.550;2024-02-26T00:20:10;94190;;;10.64;44.53
2711;BME280;20721;47.402;8.550;2024-02-26T00:24:07;94187;;;10.64;44.72
2711;BME280;20721;47.402;8.550;2024-02-26T00:28:07;94185;;;10.65;44.81
2711;BME280;20721;47.402;8.550;2024-02-26T00:31:10;94175;;;10.65;44.76
2711;BME280;20721;47.402;8.550;2024-02-26T00:33:07;94179;;;10.65;44.65
2711;BME280;20721;47.402;8.550;2024-02-26T00:36:07;94190;;;10.63;44.68
2711;BME280;20721;47.402;8.550;2024-02-26T00:38:07;94193;;;10.64;44.49
2711;BME280;20721;47.402;8.550;2024-02-26T00:42:07;94194;;;10.61;44.19
2711;BME280;20721;47.402;8.550;2024-02-26T00:44:07;94203;;;10.60;43.78
2711;BME280;20721;47.402;8.550;2024-02-26T00:46:07;94198;;;10.60;43.88
2711;BME280;20721;47.402;8.550;2024-02-26T00:49:07;94194;;;10.58;43.79
2711;BME280;20721;47.402;8.550;2024-02-26T00:51:07;94194;;;10.53;43.81
2711;BME280;20721;47.402;8.550;2024-02-26T00:53:08;94202;;;10.39;44.10
2711;BME280;20721;47.402;8.550;2024-02-26T00:55:07;94199;;;10.29;43.78
2711;BME280;20721;47.402;8.550;2024-02-26T00:57:07;94204;;;10.32;43.62
2711;BME280;20721;47.402;8.550;2024-02-26T00:59:07;94207;;;10.36;43.65
2711;BME280;20721;47.402;8.550;2024-02-26T01:01:07;94211;;;10.39;43.69
2711;BME280;20721;47.402;8.550;2024-02-26T01:03:07;94213;;;10.33;43.56
2711;BME280;20721;47.402;8.550;2024-02-26T01:06:07;94214;;;10.31;43.73
2711;BME280;20721;47.402;8.550;2024-02-26T01:09:08;94206;;;10.25;44.00
2711;BME280;20721;47.402;8.550;2024-02-26T01:11:07;94205;;;10.16;44.55
2711;BME280;20721;47.402;8.550;2024-02-26T01:13:07;94208;;;10.18;44.89
2711;BME280;20721;47.402;8.550;2024-02-26T01:16:07;94208;;;10.21;45.09
2711;BME280;20721;47.402;8.550;2024-02-26T01:18:07;94209;;;10.26;45.15
2711;BME280;20721;47.402;8.550;2024-02-26T01:20:08;94215;;;10.28;45.27
2711;BME280;20721;47.402;8.550;2024-02-26T01:22:07;94214;;;10.22;45.55
2711;BME280;20721;47.402;8.550;2024-02-26T01:24:07;94210;;;10.21;45.77
2711;BME280;20721;47.402;8.550;2024-02-26T01:26:07;94206;;;10.25;45.69
2711;BME280;20721;47.402;8.550;2024-02-26T01:28:07;94212;;;10.32;45.73
2711;BME280;20721;47.402;8.550;2024-02-26T01:30:07;94208;;;10.37;45.62
2711;BME280;20721;47.402;8.550;2024-02-26T01:32:07;94210;;;10.33;45.80
2711;BME280;20721;47.402;8.550;2024-02-26T01:34:07;94205;;;10.31;45.85
2711;BME280;20721;47.402;8.550;2024-02-26T01:36:07;94201;;;10.33;45.97
2711;BME280;20721;47.402;8.550;2024-02-26T01:38:07;94201;;;10.38;45.90
2711;BME280;20721;47.402;8.550;2024-02-26T01:40:07;94201;;;10.44;45.98
2711;BME280;20721;47.402;8.550;2024-02-26T01:42:07;94206;;;10.39;45.91
2711;BME280;20721;47.402;8.550;2024-02-26T01:44:07;94203;;;10.36;45.89
2711;BME280;20721;47.402;8.550;2024-02-26T01:46:08;94198;;;10.31;46.12
2711;BME280;20721;47.402;8.550;2024-02-26T01:48:07;94198;;;10.35;46.27
2711;BME280;20721;47.402;8.550;2024-02-26T01:50:07;94194;;;10.39;46.16
2711;BME280;20721;47.402;8.550;2024-02-26T01:52:07;94202;;;10.42;46.23
2711;BME280;20721;47.402;8.550;2024-02-26T01:54:07;94201;;;10.43;46.31
2711;BME280;20721;47.402;8.550;2024-02-26T01:56:07;94202;;;10.45;46.31
2711;BME280;20721;47.402;8.550;2024-02-26T01:58:07;94201;;;10.46;46.47
2711;BME280;20721;47.402;8.550;2024-02-26T02:00:07;94199;;;10.46;46.39
2711;BME280;20721;47.402;8.550;2024-02-26T02:02:07;94190;;;10.49;46.54
2711;BME280;20721;47.402;8.550;2024-02-26T02:04:07;94189;;;10.50;46.49
2711;BME280;20721;47.402;8.550;2024-02-26T02:07:07;94193;;;10.51;46.43
2711;BME280;20721;47.402;8.550;2024-02-26T02:09:08;94190;;;10.50;46.61
2711;BME280;20721;47.402;8.550;2024-02-26T02:11:07;94187;;;10.49;46.66
2711;BME280;20721;47.402;8.550;2024-02-26T02:15:07;94190;;;10.44;46.91
2711;BME280;20721;47.402;8.550;2024-02-26T02:17:07;94190;;;10.44;46.83
2711;BME280;20721;47.402;8.550;2024-02-26T02:19:07;94184;;;10.44;46.92
2711;BME280;20721;47.402;8.550;2024-02-26T02:22:11;94184;;;10.46;46.73
2711;BME280;20721;47.402;8.550;2024-02-26T02:25:07;94183;;;10.46;46.86
2711;BME280;20721;47.402;8.550;2024-02-26T02:27:07;94182;;;10.48;46.92
2711;BME280;20721;47.402;8.550;2024-02-26T02:29:07;94181;;;10.49;47.28
2711;BME280;20721;47.402;8.550;2024-02-26T02:31:07;94182;;;10.49;46.91
2711;BME280;20721;47.402;8.550;2024-02-26T02:34:08;94169;;;10.50;47.36
2711;BME280;20721;47.402;8.550;2024-02-26T02:36:10;94165;;;10.48;47.12
2711;BME280;20721;47.402;8.550;2024-02-26T02:38:07;94160;;;10.45;46.98
2711;BME280;20721;47.402;8.550;2024-02-26T02:40:07;94162;;;10.39;47.08
2711;BME280;20721;47.402;8.550;2024-02-26T02:42:07;94153;;;10.34;47.35
2711;BME280;20721;47.402;8.550;2024-02-26T02:44:07;94150;;;10.24;47.55
2711;BME280;20721;47.402;8.550;2024-02-26T02:47:07;94151;;;10.15;47.90
2711;BME280;20721;47.402;8.550;2024-02-26T02:51:07;94152;;;10.14;48.17
2711;BME280;20721;47.402;8.550;2024-02-26T02:53:07;94150;;;10.14;48.17
2711;BME280;20721;47.402;8.550;2024-02-26T02:56:07;94156;;;10.10;48.42
2711;BME280;20721;47.402;8.550;2024-02-26T02:59:11;94155;;;10.11;48.55
2711;BME280;20721;47.402;8.550;2024-02-26T03:01:07;94152;;;10.05;48.31
2711;BME280;20721;47.402;8.550;2024-02-26T03:03:07;94137;;;9.76;48.85
2711;BME280;20721;47.402;8.550;2024-02-26T03:05:07;94131;;;9.33;49.85
2711;BME280;20721;47.402;8.550;2024-02-26T03:07:07;94130;;;9.15;50.37
2711;BME280;20721;47.402;8.550;2024-02-26T03:09:07;94125;;;9.13;50.54
2711;BME280;20721;47.402;8.550;2024-02-26T03:11:07;94124;;;9.01;50.87
2711;BME280;20721;47.402;8.550;2024-02-26T03:13:07;94124;;;9.02;51.01
2711;BME280;20721;47.402;8.550;2024-02-26T03:15:08;94126;;;9.03;50.91
2711;BME280;20721;47.402;8.550;2024-02-26T03:17:07;94125;;;9.10;50.67
2711;BME280;20721;47.402;8.550;2024-02-26T03:19:07;94131;;;9.08;50.75
2711;BME280;20721;47.402;8.550;2024-02-26T03:21:07;94132;;;9.02;50.85
2711;BME280;20721;47.402;8.550;2024-02-26T03:23:11;94137;;;9.09;50.98
2711;BME280;20721;47.402;8.550;2024-02-26T03:26:08;94137;;;9.14;50.90
2711;BME280;20721;47.402;8.550;2024-02-26T03:28:07;94131;;;9.22;50.62
2711;BME280;20721;47.402;8.550;2024-02-26T03:30:08;94132;;;9.20;50.69
2711;BME280;20721;47.402;8.550;2024-02-26T03:32:07;94136;;;9.08;50.94
2711;BME280;20721;47.402;8.550;2024-02-26T03:34:08;94132;;;9.00;51.18
2711;BME280;20721;47.402;8.550;2024-02-26T03:36:12;94137;;;9.05;51.28
2711;BME280;20721;47.402;8.550;2024-02-26T03:38:07;94150;;;9.14;51.20
2711;BME280;20721;47.402;8.550;2024-02-26T03:40:08;94160;;;9.25;51.17
2711;BME280;20721;47.402;8.550;2024-02-26T03:42:07;94157;;;9.41;50.87
2711;BME280;20721;47.402;8.550;2024-02-26T03:44:07;94154;;;9.54;50.63
2711;BME280;20721;47.402;8.550;2024-02-26T03:46:08;94145;;;9.60;50.66
2711;BME280;20721;47.402;8.550;2024-02-26T03:49:07;94151;;;9.62;50.57
2711;BME280;20721;47.402;8.550;2024-02-26T03:51:08;94158;;;9.38;50.97
2711;BME280;20721;47.402;8.550;2024-02-26T03:53:12;94162;;;9.40;51.20
2711;BME280;20721;47.402;8.550;2024-02-26T03:55:07;94159;;;9.50;51.03
2711;BME280;20721;47.402;8.550;2024-02-26T03:57:07;94167;;;9.57;51.04
2711;BME280;20721;47.402;8.550;2024-02-26T03:59:07;94171;;;9.64;50.91
2711;BME280;20721;47.402;8.550;2024-02-26T04:01:08;94179;;;9.71;50.75
2711;BME280;20721;47.402;8.550;2024-02-26T04:03:07;94179;;;9.72;50.85
2711;BME280;20721;47.402;8.550;2024-02-26T04:05:10;94187;;;9.69;50.86
2711;BME280;20721;47.402;8.550;2024-02-26T04:07:08;94192;;;9.72;50.89
2711;BME280;20721;47.402;8.550;2024-02-26T04:09:09;94195;;;9.74;50.90
2711;BME280;20721;47.402;8.550;2024-02-26T04:11:07;94201;;;9.75;50.86
2711;BME280;20721;47.402;8.550;2024-02-26T04:13:12;94201;;;9.74;50.98
2711;BME280;20721;47.402;8.550;2024-02-26T04:15:08;94202;;;9.72;51.16
2711;BME280;20721;47.402;8.550;2024-02-26T04:20:07;94206;;;9.75;51.03
2711;BME280;20721;47.402;8.550;2024-02-26T04:22:07;94213;;;9.78;50.77
2711;BME280;20721;47.402;8.550;2024-02-26T04:24:07;94217;;;9.81;50.67
2711;BME280;20721;47.402;8.550;2024-02-26T04:26:07;94210;;;9.84;50.68
2711;BME280;20721;47.402;8.550;2024-02-26T04:28:07;94207;;;9.90;50.80
2711;BME280;20721;47.402;8.550;2024-02-26T04:30:08;94209;;;9.97;50.80
2711;BME280;20721;47.402;8.550;2024-02-26T04:32:07;94206;;;9.92;51.03
2711;BME280;20721;47.402;8.550;2024-02-26T04:34:07;94205;;;9.94;51.19
2711;BME280;20721;47.402;8.550;2024-02-26T04:36:12;94213;;;9.97;51.28
2711;BME280;20721;47.402;8.550;2024-02-26T04:38:07;94217;;;10.02;51.31
2711;BME280;20721;47.402;8.550;2024-02-26T04:40:08;94219;;;10.05;51.16
2711;BME280;20721;47.402;8.550;2024-02-26T04:42:07;94219;;;10.06;51.20
2711;BME280;20721;47.402;8.550;2024-02-26T04:46:08;94215;;;10.11;51.17
2711;BME280;20721;47.402;8.550;2024-02-26T04:48:08;94211;;;10.07;50.92
2711;BME280;20721;47.402;8.550;2024-02-26T04:51:07;94212;;;10.06;51.15
2711;BME280;20721;47.402;8.550;2024-02-26T04:55:08;94205;;;10.04;51.35
2711;BME280;20721;47.402;8.550;2024-02-26T04:57:07;94207;;;9.98;51.55
2711;BME280;20721;47.402;8.550;2024-02-26T04:59:07;94208;;;9.95;51.88
2711;BME280;20721;47.402;8.550;2024-02-26T05:02:07;94206;;;9.89;52.15
2711;BME280;20721;47.402;8.550;2024-02-26T05:04:08;94204;;;9.77;52.54
2711;BME280;20721;47.402;8.550;2024-02-26T05:06:09;94216;;;9.73;52.43
2711;BME280;20721;47.402;8.550;2024-02-26T05:08:07;94213;;;9.68;52.89
2711;BME280;20721;47.402;8.550;2024-02-26T05:10:08;94225;;;9.71;53.15
2711;BME280;20721;47.402;8.550;2024-02-26T05:12:07;94234;;;9.76;53.19
2711;BME280;20721;47.402;8.550;2024-02-26T05:14:07;94240;;;9.77;53.43
2711;BME280;20721;47.402;8.550;2024-02-26T05:16:07;94244;;;9.79;53.49
2711;BME280;20721;47.402;8.550;2024-02-26T05:18:07;94242;;;9.69;53.58
2711;BME280;20721;47.402;8.550;2024-02-26T05:20:08;94249;;;9.64;54.09
2711;BME280;20721;47.402;8.550;2024-02-26T05:22:07;94240;;;9.67;54.46
2711;BME280;20721;47.402;8.550;2024-02-26T05:25:08;94236;;;9.70;54.58
2711;BME280;20721;47.402;8.550;2024-02-26T05:27:08;94229;;;9.71;54.72
2711;BME280;20721;47.402;8.550;2024-02-26T05:29:07;94232;;;9.74;54.77
2711;BME280;20721;47.402;8.550;2024-02-26T05:32:07;94231;;;9.76;54.64
2711;BME280;20721;47.402;8.550;2024-02-26T05:35:08;94230;;;9.78;54.99
2711;BME280;20721;47.402;8.550;2024-02-26T05:37:07;94241;;;9.81;54.84
2711;BME280;20721;47.402;8.550;2024-02-26T05:39:11;94242;;;9.83;54.71
2711;BME280;20721;47.402;8.550;2024-02-26T05:41:09;94242;;;9.83;54.76
2711;BME280;20721;47.402;8.550;2024-02-26T05:46:08;94232;;;9.85;54.93
2711;BME280;20721;47.402;8.550;2024-02-26T05:48:08;94229;;;9.84;54.69
2711;BME280;20721;47.402;8.550;2024-02-26T05:50:09;94231;;;9.82;54.88
2711;BME280;20721;47.402;8.550;2024-02-26T05:52:08;94240;;;9.80;54.97
2711;BME280;20721;47.402;8.550;2024-02-26T05:55:08;94247;;;9.75;54.91
2711;BME280;20721;47.402;8.550;2024-02-26T05:57:08;94247;;;9.75;55.17
2711;BME280;20721;47.402;8.550;2024-02-26T06:00:08;94249;;;9.77;55.26
2711;BME280;20721;47.402;8.550;2024-02-26T06:03:08;94250;;;9.76;55.03
2711;BME280;20721;47.402;8.550;2024-02-26T06:05:08;94250;;;9.21;56.28
2711;BME280;20721;47.402;8.550;2024-02-26T06:07:08;94248;;;8.74;57.66
2711;BME280;20721;47.402;8.550;2024-02-26T06:09:08;94245;;;8.59;58.25
2711;BME280;20721;47.402;8.550;2024-02-26T06:11:08;94238;;;8.58;58.41
2711;BME280;20721;47.402;8.550;2024-02-26T06:13:08;94238;;;8.71;58.15
2711;BME280;20721;47.402;8.550;2024-02-26T06:15:08;94235;;;8.72;58.00
2711;BME280;20721;47.402;8.550;2024-02-26T06:17:08;94230;;;8.70;58.10
2711;BME280;20721;47.402;8.550;2024-02-26T06:19:11;94230;;;8.55;58.30
2711;BME280;20721;47.402;8.550;2024-02-26T06:21:09;94234;;;8.35;58.92
2711;BME280;20721;47.402;8.550;2024-02-26T06:23:08;94238;;;8.44;58.94
2711;BME280;20721;47.402;8.550;2024-02-26T06:25:08;94236;;;8.63;58.45
2711;BME280;20721;47.402;8.550;2024-02-26T06:27:08;94229;;;8.52;58.78
2711;BME280;20721;47.402;8.550;2024-02-26T06:29:08;94226;;;8.51;58.60
2711;BME280;20721;47.402;8.550;2024-02-26T06:31:08;94225;;;8.44;58.56
2711;BME280;20721;47.402;8.550;2024-02-26T06:34:08;94225;;;8.47;58.76
2711;BME280;20721;47.402;8.550;2024-02-26T06:36:08;94234;;;8.52;58.29
2711;BME280;20721;47.402;8.550;2024-02-26T06:38:11;94244;;;8.51;58.45
2711;BME280;20721;47.402;8.550;2024-02-26T06:40:08;94247;;;8.66;58.12
2711;BME280;20721;47.402;8.550;2024-02-26T06:42:08;94251;;;8.89;57.70
2711;BME280;20721;47.402;8.550;2024-02-26T06:44:08;94257;;;9.20;56.88
2711;BME280;20721;47.402;8.550;2024-02-26T06:46:08;94254;;;9.45;55.99
2711;BME280;20721;47.402;8.550;2024-02-26T06:48:08;94251;;;9.63;55.61
2711;BME280;20721;47.402;8.550;2024-02-26T06:50:08;94250;;;9.79;55.23
2711;BME280;20721;47.402;8.550;2024-02-26T06:52:08;94251;;;9.92;54.93
2711;BME280;20721;47.402;8.550;2024-02-26T06:54:09;94250;;;10.03;54.77
2711;BME280;20721;47.402;8.550;2024-02-26T06:56:08;94253;;;10.07;54.35
2711;BME280;20721;47.402;8.550;2024-02-26T06:58:08;94252;;;10.13;54.17
2711;BME280;20721;47.402;8.550;2024-02-26T07:00:08;94252;;;10.18;54.16
2711;BME280;20721;47.402;8.550;2024-02-26T07:03:08;94256;;;10.23;54.03
2711;BME280;20721;47.402;8.550;2024-02-26T07:05:08;94261;;;10.29;53.89
2711;BME280;20721;47.402;8.550;2024-02-26T07:07:08;94264;;;10.33;53.68
2711;BME280;20721;47.402;8.550;2024-02-26T07:09:08;94270;;;10.28;53.66
2711;BME280;20721;47.402;8.550;2024-02-26T07:13:08;94270;;;10.29;53.73
2711;BME280;20721;47.402;8.550;2024-02-26T07:15:10;94273;;;10.37;53.49
2711;BME280;20721;47.402;8.550;2024-02-26T07:17:08;94270;;;10.42;53.11
2711;BME280;20721;47.402;8.550;2024-02-26T07:19:08;94271;;;10.44;52.89
2711;BME280;20721;47.402;8.550;2024-02-26T07:21:08;94274;;;10.56;52.86
2711;BME280;20721;47.402;8.550;2024-02-26T07:23:08;94274;;;10.72;52.59
2711;BME280;20721;47.402;8.550;2024-02-26T07:25:08;94274;;;10.91;52.15
2711;BME280;20721;47.402;8.550;2024-02-26T07:27:08;94272;;;10.71;52.43
2711;BME280;20721;47.402;8.550;2024-02-26T07:29:08;94276;;;10.29;53.32
2711;BME280;20721;47.402;8.550;2024-02-26T07:31:08;94270;;;11.36;51.25
2711;BME280;20721;47.402;8.550;2024-02-26T07:33:08;94264;;;11.82;50.29
2711;BME280;20721;47.402;8.550;2024-02-26T07:35:08;94258;;;12.97;47.84
2711;BME280;20721;47.402;8.550;2024-02-26T07:37:08;94269;;;16.53;41.08
2711;BME280;20721;47.402;8.550;2024-02-26T07:39:08;94262;;;19.42;35.96
2711;BME280;20721;47.402;8.550;2024-02-26T07:41:08;94257;;;20.16;34.24
2711;BME280;20721;47.402;8.550;2024-02-26T07:43:08;94255;;;19.49;34.69
2711;BME280;20721;47.402;8.550;2024-02-26T07:45:09;94260;;;18.58;35.77
2711;BME280;20721;47.402;8.550;2024-02-26T07:47:09;94268;;;20.06;33.83
2711;BME280;20721;47.402;8.550;2024-02-26T07:49:08;94262;;;21.81;30.92
2711;BME280;20721;47.402;8.550;2024-02-26T07:51:08;94268;;;23.20;29.41
2711;BME280;20721;47.402;8.550;2024-02-26T07:53:08;94254;;;21.45;30.92
2711;BME280;20721;47.402;8.550;2024-02-26T07:55:08;94260;;;23.26;28.63
2711;BME280;20721;47.402;8.550;2024-02-26T07:57:08;94258;;;24.70;26.76
2711;BME280;20721;47.402;8.550;2024-02-26T07:59:09;94265;;;25.90;25.47
2711;BME280;20721;47.402;8.550;2024-02-26T08:01:08;94256;;;26.82;24.02
2711;BME280;20721;47.402;8.550;2024-02-26T08:03:08;94265;;;28.30;22.71
2711;BME280;20721;47.402;8.550;2024-02-26T08:05:08;94254;;;28.14;22.20
2711;BME280;20721;47.402;8.550;2024-02-26T08:07:08;94256;;;26.22;23.86
2711;BME280;20721;47.402;8.550;2024-02-26T08:09:08;94256;;;24.36;25.68
2711;BME280;20721;47.402;8.550;2024-02-26T08:11:08;94261;;;23.03;27.28
2711;BME280;20721;47.402;8.550;2024-02-26T08:13:08;94266;;;22.59;28.05
2711;BME280;20721;47.402;8.550;2024-02-26T08:15:08;94275;;;22.30;28.35
2711;BME280;20721;47.402;8.550;2024-02-26T08:17:08;94279;;;24.60;26.16
2711;BME280;20721;47.402;8.550;2024-02-26T08:19:10;94278;;;26.89;23.75
2711;BME280;20721;47.402;8.550;2024-02-26T08:21:08;94280;;;28.84;22.01
2711;BME280;20721;47.402;8.550;2024-02-26T08:23:08;94279;;;29.84;20.70
2711;BME280;20721;47.402;8.550;2024-02-26T08:25:09;94276;;;29.31;20.92
2711;BME280;20721;47.402;8.550;2024-02-26T08:27:08;94270;;;27.15;22.71
2711;BME280;20721;47.402;8.550;2024-02-26T08:29:11;94276;;;25.91;24.21
2711;BME280;20721;47.402;8.550;2024-02-26T08:31:08;94270;;;24.83;25.37
2711;BME280;20721;47.402;8.550;2024-02-26T08:33:08;94273;;;24.87;25.49
2711;BME280;20721;47.402;8.550;2024-02-26T08:35:08;94266;;;26.89;23.37
2711;BME280;20721;47.402;8.550;2024-02-26T08:37:08;94263;;;28.50;21.87
2711;BME280;20721;47.402;8.550;2024-02-26T08:39:08;94258;;;27.75;22.12
2711;BME280;20721;47.402;8.550;2024-02-26T08:41:08;94259;;;25.74;23.89
2711;BME280;20721;47.402;8.550;2024-02-26T08:43:09;94267;;;23.61;26.16
2711;BME280;20721;47.402;8.550;2024-02-26T08:45:08;94275;;;21.35;29.01
2711;BME280;20721;47.402;8.550;2024-02-26T08:47:08;94272;;;19.80;31.10
2711;BME280;20721;47.402;8.550;2024-02-26T08:49:08;94280;;;18.73;32.89
2711;BME280;20721;47.402;8.550;2024-02-26T08:51:09;94285;;;17.84;34.20
2711;BME280;20721;47.402;8.550;2024-02-26T08:53:08;94292;;;17.20;35.49
2711;BME280;20721;47.402;8.550;2024-02-26T08:55:08;94301;;;16.73;36.64
2711;BME280;20721;47.402;8.550;2024-02-26T08:57:08;94300;;;16.35;37.56
2711;BME280;20721;47.402;8.550;2024-02-26T08:59:08;94300;;;16.02;37.62
2711;BME280;20721;47.402;8.550;2024-02-26T09:01:08;94298;;;15.57;38.68
2711;BME280;20721;47.402;8.550;2024-02-26T09:03:08;94292;;;15.33;39.53
2711;BME280;20721;47.402;8.550;2024-02-26T09:05:08;94291;;;15.18;40.00
2711;BME280;20721;47.402;8.550;2024-02-26T09:07:08;94283;;;15.07;40.39
2711;BME280;20721;47.402;8.550;2024-02-26T09:09:08;94280;;;14.97;40.67
2711;BME280;20721;47.402;8.550;2024-02-26T09:11:10;94278;;;14.85;40.72
2711;BME280;20721;47.402;8.550;2024-02-26T09:13:08;94276;;;14.71;41.26
2711;BME280;20721;47.402;8.550;2024-02-26T09:15:08;94273;;;14.57;41.52
2711;BME280;20721;47.402;8.550;2024-02-26T09:17:08;94275;;;14.42;42.27
2711;BME280;20721;47.402;8.550;2024-02-26T09:19:08;94280;;;14.26;42.57
2711;BME280;20721;47.402;8.550;2024-02-26T09:21:08;94284;;;14.21;43.08
2711;BME280;20721;47.402;8.550;2024-02-26T09:23:08;94287;;;14.18;42.78
2711;BME280;20721;47.402;8.550;2024-02-26T09:25:08;94280;;;14.16;42.73
2711;BME280;20721;47.402;8.550;2024-02-26T09:27:08;94277;;;14.20;42.81
2711;BME280;20721;47.402;8.550;2024-02-26T09:31:08;94278;;;14.17;42.91
2711;BME280;20721;47.402;8.550;2024-02-26T09:33:08;94278;;;14.16;43.18
2711;BME280;20721;47.402;8.550;2024-02-26T09:36:10;94283;;;14.16;43.26
2711;BME280;20721;47.402;8.550;2024-02-26T09:39:11;94279;;;14.14;42.87
2711;BME280;20721;47.402;8.550;2024-02-26T09:41:11;94283;;;14.13;43.21
2711;BME280;20721;47.402;8.550;2024-02-26T09:43:13;94287;;;14.20;43.08
2711;BME280;20721;47.402;8.550;2024-02-26T09:45:09;94288;;;14.31;42.78
2711;BME280;20721;47.402;8.550;2024-02-26T09:47:09;94285;;;14.32;42.58
2711;BME280;20721;47.402;8.550;2024-02-26T09:49:08;94288;;;14.32;42.73
2711;BME280;20721;47.402;8.550;2024-02-26T09:51:08;94285;;;14.59;42.76
2711;BME280;20721;47.402;8.550;2024-02-26T09:53:10;94280;;;14.83;41.83
2711;BME280;20721;47.402;8.550;2024-02-26T09:55:09;94288;;;14.95;41.88
2711;BME280;20721;47.402;8.550;2024-02-26T09:57:15;94292;;;14.94;42.33
2711;BME280;20721;47.402;8.550;2024-02-26T09:59:10;94294;;;14.88;42.19
2711;BME280;20721;47.402;8.550;2024-02-26T10:01:10;94294;;;14.83;42.38
2711;BME280;20721;47.402;8.550;2024-02-26T10:03:09;94294;;;14.74;42.40
2711;BME280;20721;47.402;8.550;2024-02-26T10:05:09;94292;;;14.67;42.81
2711;BME280;20721;47.402;8.550;2024-02-26T10:07:09;94289;;;14.60;42.92
2711;BME280;20721;47.402;8.550;2024-02-26T10:09:09;94290;;;14.50;43.14
2711;BME280;20721;47.402;8.550;2024-02-26T10:11:08;94288;;;14.39;43.26
2711;BME280;20721;47.402;8.550;2024-02-26T10:13:10;94293;;;14.32;43.71
2711;BME280;20721;47.402;8.550;2024-02-26T10:15:08;94296;;;14.28;43.83
2711;BME280;20721;47.402;8.550;2024-02-26T10:17:08;94304;;;14.19;43.79
2711;BME280;20721;47.402;8.550;2024-02-26T10:19:09;94302;;;14.11;43.83
2711;BME280;20721;47.402;8.550;2024-02-26T10:21:08;94299;;;14.07;44.10
2711;BME280;20721;47.402;8.550;2024-02-26T10:24:13;94300;;;14.03;44.06
2711;BME280;20721;47.402;8.550;2024-02-26T10:26:09;94304;;;14.00;44.42
2711;BME280;20721;47.402;8.550;2024-02-26T10:28:09;94303;;;13.98;44.26
2711;BME280;20721;47.402;8.550;2024-02-26T10:30:16;94302;;;13.91;44.33
2711;BME280;20721;47.402;8.550;2024-02-26T10:32:09;94306;;;13.88;44.54
2711;BME280;20721;47.402;8.550;2024-02-26T10:34:08;94308;;;13.85;44.85
2711;BME280;20721;47.402;8.550;2024-02-26T10:36:08;94310;;;13.85;44.84
2711;BME280;20721;47.402;8.550;2024-02-26T10:38:08;94315;;;13.80;44.87
2711;BME280;20721;47.402;8.550;2024-02-26T10:40:10;94323;;;13.84;44.97
2711;BME280;20721;47.402;8.550;2024-02-26T10:43:08;94320;;;13.88;44.81
2711;BME280;20721;47.402;8.550;2024-02-26T10:45:09;94317;;;13.91;44.80
2711;BME280;20721;47.402;8.550;2024-02-26T10:47:08;94320;;;13.94;44.70
2711;BME280;20721;47.402;8.550;2024-02-26T10:49:14;94323;;;13.96;44.31
2711;BME280;20721;47.402;8.550;2024-02-26T10:51:09;94318;;;14.02;44.28
2711;BME280;20721;47.402;8.550;2024-02-26T10:53:13;94323;;;14.13;44.00
2711;BME280;20721;47.402;8.550;2024-02-26T10:55:11;94327;;;14.26;43.90
2711;BME280;20721;47.402;8.550;2024-02-26T10:57:12;94327;;;14.31;44.01
2711;BME280;20721;47.402;8.550;2024-02-26T10:59:09;94328;;;14.41;43.86
2711;BME280;20721;47.402;8.550;2024-02-26T11:02:08;94326;;;14.49;43.66
2711;BME280;20721;47.402;8.550;2024-02-26T11:04:08;94328;;;14.51;43.73
2711;BME280;20721;47.402;8.550;2024-02-26T11:06:10;94323;;;14.49;43.92
2711;BME280;20721;47.402;8.550;2024-02-26T11:08:09;94326;;;14.43;44.06
2711;BME280;20721;47.402;8.550;2024-02-26T11:10:08;94327;;;14.38;44.06
2711;BME280;20721;47.402;8.550;2024-02-26T11:12:11;94330;;;14.35;44.14
2711;BME280;20721;47.402;8.550;2024-02-26T11:14:09;94329;;;14.26;44.18
2711;BME280;20721;47.402;8.550;2024-02-26T11:16:08;94326;;;14.31;44.12
2711;BME280;20721;47.402;8.550;2024-02-26T11:19:09;94329;;;14.34;44.07
2711;BME280;20721;47.402;8.550;2024-02-26T11:23:08;94326;;;14.33;44.06
2711;BME280;20721;47.402;8.550;2024-02-26T11:25:11;94333;;;14.33;44.16
2711;BME280;20721;47.402;8.550;2024-02-26T11:28:10;94335;;;14.29;43.56
2711;BME280;20721;47.402;8.550;2024-02-26T11:30:09;94332;;;14.26;43.51
2711;BME280;20721;47.402;8.550;2024-02-26T11:32:08;94331;;;14.25;43.19
2711;BME280;20721;47.402;8.550;2024-02-26T11:34:13;94334;;;14.23;43.35
2711;BME280;20721;47.402;8.550;2024-02-26T11:36:09;94329;;;14.17;42.82
2711;BME280;20721;47.402;8.550;2024-02-26T11:39:08;94335;;;14.17;43.08
2711;BME280;20721;47.402;8.550;2024-02-26T11:42:09;94339;;;14.16;43.34
2711;BME280;20721;47.402;8.550;2024-02-26T11:44:08;94340;;;14.18;42.92
2711;BME280;20721;47.402;8.550;2024-02-26T11:47:09;94333;;;14.20;42.25
2711;BME280;20721;47.402;8.550;2024-02-26T11:49:31;94329;;;14.23;42.33
2711;BME280;20721;47.402;8.550;2024-02-26T11:51:10;94331;;;14.24;42.23
2711;BME280;20721;47.402;8.550;2024-02-26T11:53:29;94333;;;14.26;41.93
2711;BME280;20721;47.402;8.550;2024-02-26T11:55:09;94328;;;14.31;42.25
2711;BME280;20721;47.402;8.550;2024-02-26T11:58:08;94327;;;14.35;42.17
2711;BME280;20721;47.402;8.550;2024-02-26T12:00:11;94322;;;14.41;41.67
2711;BME280;20721;47.402;8.550;2024-02-26T12:02:08;94316;;;14.47;41.68
2711;BME280;20721;47.402;8.550;2024-02-26T12:03:10;94314;;;14.49;41.79
2711;BME280;20721;47.402;8.550;2024-02-26T12:05:12;94317;;;14.56;41.34
2711;BME280;20721;47.402;8.550;2024-02-26T12:07:10;94312;;;14.39;41.40
2711;BME280;20721;47.402;8.550;2024-02-26T12:09:09;94304;;;14.43;41.22
2711;BME280;20721;47.402;8.550;2024-02-26T12:11:14;94301;;;14.52;41.21
2711;BME280;20721;47.402;8.550;2024-02-26T12:13:11;94301;;;14.62;41.15
2711;BME280;20721;47.402;8.550;2024-02-26T12:16:09;94306;;;14.65;41.02